createdAt,value
2022-12-27T00:00:54.791Z,100292.34
2022-12-27T00:03:22.717Z,100292.31
2022-12-27T00:05:50.188Z,100299.34
2022-12-27T00:08:17.599Z,100294.47
2022-12-27T00:10:45.400Z,100300.16
2022-12-27T00:13:12.898Z,100291.25
2022-12-27T00:15:40.268Z,100286.72
2022-12-27T00:18:07.984Z,100272.00
2022-12-27T00:20:35.390Z,100261.78
2022-12-27T00:23:03.401Z,100268.09
2022-12-27T00:25:31.451Z,100277.47
2022-12-27T00:27:58.817Z,100281.47
2022-12-27T00:30:26.231Z,100281.47
2022-12-27T00:32:54.111Z,100288.13
2022-12-27T00:35:21.480Z,100297.87
2022-12-27T00:37:48.866Z,100292.81
2022-12-27T00:40:16.615Z,100272.16
2022-12-27T00:42:44.039Z,100283.19
2022-12-27T00:45:11.906Z,100257.97
2022-12-27T00:47:40.285Z,100257.97
2022-12-27T00:50:07.914Z,100240.00
2022-12-27T00:52:35.294Z,100248.31
2022-12-27T00:55:03.321Z,100258.94
2022-12-27T00:57:30.765Z,100243.87
2022-12-27T00:59:58.182Z,100242.22
2022-12-27T01:02:26.124Z,100253.19
2022-12-27T01:04:54.651Z,100237.66
2022-12-27T01:07:22.037Z,100230.31
2022-12-27T01:09:49.917Z,100221.72
2022-12-27T01:12:17.313Z,100218.25
2022-12-27T01:14:44.960Z,100212.81
2022-12-27T01:17:12.656Z,100213.47
2022-12-27T01:19:40.092Z,100226.03
2022-12-27T01:22:07.697Z,100217.41
2022-12-27T01:24:35.387Z,100230.50
2022-12-27T01:27:02.801Z,100213.44
2022-12-27T01:29:30.221Z,100215.69
2022-12-27T01:31:57.888Z,100227.75
2022-12-27T01:34:26.234Z,100240.03
2022-12-27T01:36:53.695Z,100230.75
2022-12-27T01:39:21.485Z,100237.06
2022-12-27T01:42:07.956Z,100246.81
2022-12-27T01:44:39.032Z,100246.22
2022-12-27T01:47:12.504Z,100260.44
2022-12-27T01:49:50.638Z,100260.69
2022-12-27T01:52:18.249Z,100259.75
2022-12-27T01:54:46.515Z,100263.00
2022-12-27T01:57:13.996Z,100266.63
2022-12-27T01:59:41.706Z,100275.31
2022-12-27T02:02:09.782Z,100273.50
2022-12-27T02:04:37.578Z,100282.34
2022-12-27T02:07:05.533Z,100288.50
2022-12-27T02:09:40.843Z,100290.03
2022-12-27T02:12:09.701Z,100280.41
2022-12-27T02:14:49.172Z,100281.63
2022-12-27T02:17:20.140Z,100292.62
2022-12-27T02:20:18.047Z,100289.88
2022-12-27T02:23:07.528Z,100299.94
2022-12-27T02:25:41.016Z,100292.81
2022-12-27T02:28:32.901Z,100294.28
2022-12-27T02:31:06.424Z,100288.44
2022-12-27T02:33:37.346Z,100288.22
2022-12-27T02:36:07.601Z,100275.78
2022-12-27T02:38:43.097Z,100275.44
2022-12-27T02:41:30.599Z,100272.97
2022-12-27T02:44:16.785Z,100274.97
2022-12-27T02:47:02.758Z,100276.94
2022-12-27T02:49:54.817Z,100278.00
2022-12-27T02:52:40.808Z,100268.13
2022-12-27T02:55:23.475Z,100259.19
2022-12-27T02:58:28.659Z,100274.16
2022-12-27T03:01:31.084Z,100281.81
2022-12-27T03:04:04.272Z,100278.69
2022-12-27T03:07:01.044Z,100281.69
2022-12-27T03:09:53.912Z,100292.75
2022-12-27T03:13:02.120Z,100291.47
2022-12-27T03:15:54.056Z,100285.47
2022-12-27T03:18:37.917Z,100287.44
2022-12-27T03:21:25.545Z,100276.28
2022-12-27T03:24:14.614Z,100289.78
2022-12-27T03:26:47.662Z,100284.84
2022-12-27T03:29:36.770Z,100280.69
2022-12-27T03:32:27.318Z,100294.06
2022-12-27T03:35:11.087Z,100291.56
2022-12-27T03:37:59.612Z,100293.94
2022-12-27T03:40:30.147Z,100292.59
2022-12-27T03:43:12.304Z,100302.53
2022-12-27T03:46:14.009Z,100308.59
2022-12-27T03:48:54.030Z,100316.72
2022-12-27T03:51:23.874Z,100331.19
2022-12-27T03:53:55.069Z,100331.47
2022-12-27T03:56:22.856Z,100337.00
2022-12-27T03:58:51.586Z,100336.25
2022-12-27T04:01:19.108Z,100341.87
2022-12-27T04:03:46.884Z,100336.47
2022-12-27T04:06:14.700Z,100344.66
2022-12-27T04:09:00.556Z,100342.53
2022-12-27T04:11:46.733Z,100345.66
2022-12-27T04:14:32.692Z,100353.41
2022-12-27T04:17:19.029Z,100364.59
2022-12-27T04:20:05.025Z,100354.63
2022-12-27T04:22:52.110Z,100355.37
2022-12-27T04:25:37.832Z,100356.34
2022-12-27T04:28:24.167Z,100360.31
2022-12-27T04:31:10.169Z,100358.97
2022-12-27T04:33:56.478Z,100351.53
2022-12-27T04:36:23.872Z,100365.06
2022-12-27T04:38:51.780Z,100364.09
2022-12-27T04:41:37.998Z,100370.28
2022-12-27T04:44:24.356Z,100374.19
2022-12-27T04:47:10.623Z,100378.59
2022-12-27T04:49:57.095Z,100378.22
2022-12-27T04:52:43.493Z,100389.16
2022-12-27T04:55:17.440Z,100397.66
2022-12-27T04:57:44.810Z,100398.28
2022-12-27T05:00:32.483Z,100421.13
2022-12-27T05:03:01.253Z,100414.31
2022-12-27T05:05:29.159Z,100435.94
2022-12-27T05:08:16.412Z,100425.31
2022-12-27T05:11:02.681Z,100439.19
2022-12-27T05:13:48.430Z,100436.78
2022-12-27T05:16:16.210Z,100441.25
2022-12-27T05:18:43.677Z,100434.72
2022-12-27T05:21:11.139Z,100433.94
2022-12-27T05:24:03.376Z,100444.81
2022-12-27T05:26:33.294Z,100451.81
2022-12-27T05:29:01.518Z,100443.44
2022-12-27T05:31:29.493Z,100456.47
2022-12-27T05:33:57.762Z,100451.53
2022-12-27T05:36:26.039Z,100460.41
2022-12-27T05:38:53.491Z,100465.66
2022-12-27T05:41:20.928Z,100471.56
2022-12-27T05:43:48.922Z,100474.09
2022-12-27T05:46:21.152Z,100482.09
2022-12-27T05:48:49.525Z,100479.91
2022-12-27T05:51:21.155Z,100490.41
2022-12-27T05:53:49.162Z,100483.25
2022-12-27T05:56:18.676Z,100486.06
2022-12-27T05:58:46.516Z,100495.94
2022-12-27T06:01:16.583Z,100519.25
2022-12-27T06:03:44.873Z,100512.50
2022-12-27T06:06:13.465Z,100513.88
2022-12-27T06:08:40.934Z,100522.22
2022-12-27T06:11:13.951Z,100524.59
2022-12-27T06:13:42.518Z,100529.31
2022-12-27T06:16:12.223Z,100521.97
2022-12-27T06:18:41.220Z,100538.09
2022-12-27T06:21:11.181Z,100532.44
2022-12-27T06:23:40.657Z,100533.66
2022-12-27T06:26:10.605Z,100531.19
2022-12-27T06:28:38.277Z,100526.16
2022-12-27T06:31:06.156Z,100554.19
2022-12-27T06:33:33.716Z,100553.97
2022-12-27T06:36:06.654Z,100557.75
2022-12-27T06:38:34.354Z,100566.50
2022-12-27T06:41:07.035Z,100566.28
2022-12-27T06:43:35.204Z,100577.81
2022-12-27T06:46:05.369Z,100577.03
2022-12-27T06:48:33.820Z,100573.66
2022-12-27T06:51:04.380Z,100585.56
2022-12-27T06:53:31.883Z,100585.72
2022-12-27T06:56:07.046Z,100588.75
2022-12-27T06:58:35.065Z,100586.94
2022-12-27T07:01:20.501Z,100595.50
2022-12-27T07:03:53.243Z,100592.72
2022-12-27T07:06:21.443Z,100595.09
2022-12-27T07:08:50.879Z,100596.72
2022-12-27T07:11:19.886Z,100604.25
2022-12-27T07:13:49.495Z,100590.94
2022-12-27T07:16:19.214Z,100605.47
2022-12-27T07:18:49.707Z,100587.78
2022-12-27T07:21:20.372Z,100592.09
2022-12-27T07:23:48.008Z,100596.16
2022-12-27T07:26:20.188Z,100593.69
2022-12-27T07:28:48.119Z,100597.03
2022-12-27T07:31:17.664Z,100590.84
2022-12-27T07:33:45.160Z,100584.19
2022-12-27T07:36:14.602Z,100587.75
2022-12-27T07:38:42.064Z,100582.41
2022-12-27T07:41:10.947Z,100598.66
2022-12-27T07:43:38.775Z,100603.69
2022-12-27T07:46:08.650Z,100609.00
2022-12-27T07:48:36.684Z,100623.22
2022-12-27T07:51:04.841Z,100621.78
2022-12-27T07:53:32.936Z,100630.75
2022-12-27T07:56:06.108Z,100639.03
2022-12-27T07:58:41.149Z,100643.44
2022-12-27T08:01:10.074Z,100656.69
2022-12-27T08:03:38.879Z,100648.41
2022-12-27T08:06:07.179Z,100661.25
2022-12-27T08:08:40.377Z,100667.41
2022-12-27T08:11:08.610Z,100678.00
2022-12-27T08:13:36.359Z,100689.09
2022-12-27T08:16:04.241Z,100692.09
2022-12-27T08:18:32.930Z,100692.25
2022-12-27T08:21:00.587Z,100684.31
2022-12-27T08:23:28.151Z,100685.66
2022-12-27T08:25:55.843Z,100690.53
2022-12-27T08:28:23.237Z,100687.44
2022-12-27T08:30:50.729Z,100690.12
2022-12-27T08:33:19.305Z,100678.41
2022-12-27T08:35:54.743Z,100696.66
2022-12-27T08:38:22.871Z,100701.09
2022-12-27T08:40:50.675Z,100709.78
2022-12-27T08:43:18.281Z,100713.59
2022-12-27T08:45:45.961Z,100716.22
2022-12-27T08:48:13.410Z,100709.66
2022-12-27T08:50:40.880Z,100699.72
2022-12-27T08:53:10.289Z,100716.53
2022-12-27T08:55:37.714Z,100718.22
2022-12-27T08:58:12.186Z,100718.09
2022-12-27T09:00:43.697Z,100715.53
2022-12-27T09:03:11.147Z,100715.44
2022-12-27T09:05:41.920Z,100698.56
2022-12-27T09:08:11.009Z,100724.25
2022-12-27T09:10:39.657Z,100729.75
2022-12-27T09:13:07.517Z,100726.03
2022-12-27T09:15:35.396Z,100732.50
2022-12-27T09:18:03.204Z,100721.97
2022-12-27T09:20:31.542Z,100741.09
2022-12-27T09:22:59.343Z,100738.94
2022-12-27T09:25:27.489Z,100735.91
2022-12-27T09:27:55.236Z,100742.28
2022-12-27T09:30:22.958Z,100729.84
2022-12-27T09:32:50.388Z,100737.63
2022-12-27T09:35:17.780Z,100734.66
2022-12-27T09:37:45.480Z,100767.06
2022-12-27T09:40:16.692Z,100762.25
2022-12-27T09:42:59.596Z,100728.44
2022-12-27T09:45:46.994Z,100750.75
2022-12-27T09:48:31.106Z,100766.63
2022-12-27T09:51:14.037Z,100760.72
2022-12-27T09:53:46.442Z,100779.31
2022-12-27T09:56:21.863Z,100781.97
2022-12-27T09:58:50.140Z,100778.81
2022-12-27T10:01:32.889Z,100770.13
2022-12-27T10:04:01.233Z,100765.84
2022-12-27T10:06:31.660Z,100781.84
2022-12-27T10:09:43.738Z,100789.22
2022-12-27T10:12:14.267Z,100799.19
2022-12-27T10:15:20.016Z,100794.34
2022-12-27T10:18:06.616Z,100805.12
2022-12-27T10:20:58.609Z,100820.50
2022-12-27T10:23:29.683Z,100809.16
2022-12-27T10:26:03.181Z,100804.91
2022-12-27T10:28:43.890Z,100809.19
2022-12-27T10:31:15.084Z,100799.59
2022-12-27T10:33:44.944Z,100814.91
2022-12-27T10:36:21.769Z,100810.47
2022-12-27T10:38:49.552Z,100802.91
2022-12-27T10:41:32.293Z,100810.06
2022-12-27T10:44:00.562Z,100807.44
2022-12-27T10:46:33.064Z,100768.53
2022-12-27T10:49:20.658Z,100809.53
2022-12-27T10:51:51.052Z,100785.00
2022-12-27T10:54:31.201Z,100798.38
2022-12-27T10:57:18.852Z,100809.34
2022-12-27T10:59:46.493Z,100814.28
2022-12-27T11:02:19.102Z,100810.44
2022-12-27T11:05:00.566Z,100820.69
2022-12-27T11:07:33.058Z,100839.50
2022-12-27T11:10:16.798Z,100828.53
2022-12-27T11:13:06.771Z,100834.47
2022-12-27T11:15:36.749Z,100845.25
2022-12-27T11:18:11.044Z,100819.50
2022-12-27T11:20:43.210Z,100821.59
2022-12-27T11:23:14.252Z,100823.97
2022-12-27T11:25:55.958Z,100831.09
2022-12-27T11:28:40.238Z,100843.00
2022-12-27T11:31:11.132Z,100845.28
2022-12-27T11:33:48.663Z,100835.66
2022-12-27T11:36:26.795Z,100836.72
2022-12-27T11:38:54.222Z,100825.84
2022-12-27T11:41:31.821Z,100817.09
2022-12-27T11:44:08.271Z,100829.13
2022-12-27T11:46:59.060Z,100847.31
2022-12-27T11:49:34.455Z,100840.78
2022-12-27T11:52:35.457Z,100816.47
2022-12-27T11:55:02.776Z,100849.94
2022-12-27T11:57:49.530Z,100856.75
2022-12-27T12:00:19.989Z,100851.25
2022-12-27T12:02:57.072Z,100843.37
2022-12-27T12:05:55.630Z,100832.31
2022-12-27T12:09:02.432Z,100842.69
2022-12-27T12:11:55.200Z,100836.00
2022-12-27T12:14:38.381Z,100846.19
2022-12-27T12:17:46.997Z,100833.59
2022-12-27T12:20:50.299Z,100829.78
2022-12-27T12:23:50.514Z,100838.47
2022-12-27T12:26:20.823Z,100833.41
2022-12-27T12:29:19.414Z,100835.06
2022-12-27T12:32:11.737Z,100828.84
2022-12-27T12:34:57.696Z,100803.91
2022-12-27T12:37:52.519Z,100811.75
2022-12-27T12:40:38.504Z,100828.88
2022-12-27T12:43:13.701Z,100824.22
2022-12-27T12:45:41.028Z,100836.75
2022-12-27T12:48:20.861Z,100845.62
2022-12-27T12:51:25.785Z,100855.13
2022-12-27T12:54:17.640Z,100843.41
2022-12-27T12:56:48.053Z,100869.53
2022-12-27T12:59:46.754Z,100858.59
2022-12-27T13:02:48.028Z,100862.75
2022-12-27T13:05:24.183Z,100867.06
2022-12-27T13:08:28.563Z,100877.16
2022-12-27T13:11:14.801Z,100878.44
2022-12-27T13:14:01.948Z,100882.50
2022-12-27T13:17:02.663Z,100880.13
2022-12-27T13:20:00.838Z,100881.63
2022-12-27T13:22:47.195Z,100859.59
2022-12-27T13:25:17.789Z,100861.69
2022-12-27T13:28:00.395Z,100859.22
2022-12-27T13:30:45.667Z,100872.44
2022-12-27T13:33:45.072Z,100898.78
2022-12-27T13:36:24.997Z,100895.75
2022-12-27T13:39:30.062Z,100890.81
2022-12-27T13:42:25.286Z,100901.16
2022-12-27T13:45:08.094Z,100898.91
2022-12-27T13:47:54.051Z,100910.56
2022-12-27T13:50:24.355Z,100921.53
2022-12-27T13:53:04.424Z,100930.53
2022-12-27T13:55:55.221Z,100924.22
2022-12-27T13:59:00.594Z,100928.09
2022-12-27T14:01:28.311Z,100934.44
2022-12-27T14:04:14.777Z,100949.59
2022-12-27T14:06:44.857Z,100953.09
2022-12-27T14:09:24.648Z,100966.69
2022-12-27T14:12:35.638Z,100978.91
2022-12-27T14:15:06.633Z,100982.78
2022-12-27T14:17:52.767Z,100984.69
2022-12-27T14:20:27.833Z,100992.69
2022-12-27T14:23:04.433Z,101004.81
2022-12-27T14:26:02.321Z,100998.97
2022-12-27T14:28:48.545Z,101006.19
2022-12-27T14:31:28.138Z,101000.94
2022-12-27T14:34:25.935Z,101017.25
2022-12-27T14:37:11.267Z,101009.63
2022-12-27T14:39:41.718Z,101007.66
2022-12-27T14:42:24.639Z,101013.75
2022-12-27T14:45:20.154Z,101015.72
2022-12-27T14:48:06.548Z,101013.75
2022-12-27T14:50:48.336Z,101029.91
2022-12-27T14:53:48.383Z,101031.09
2022-12-27T14:56:27.874Z,101041.59
2022-12-27T14:59:10.280Z,101040.66
2022-12-27T15:01:56.120Z,101049.12
2022-12-27T15:04:50.699Z,101045.22
2022-12-27T15:07:50.402Z,101046.91
2022-12-27T15:10:33.891Z,101044.56
2022-12-27T15:13:20.480Z,101046.44
2022-12-27T15:16:15.209Z,101043.84
2022-12-27T15:19:08.198Z,101049.53
2022-12-27T15:22:02.051Z,101055.81
2022-12-27T15:25:06.983Z,101052.31
2022-12-27T15:27:43.362Z,101051.66
2022-12-27T15:30:21.273Z,101067.16
2022-12-27T15:32:57.108Z,101063.69
2022-12-27T15:35:40.182Z,101064.94
2022-12-27T15:38:14.475Z,101070.25
2022-12-27T15:40:54.106Z,101077.84
2022-12-27T15:43:52.497Z,101068.84
2022-12-27T15:46:23.265Z,101080.53
2022-12-27T15:49:13.029Z,101074.75
2022-12-27T15:52:01.680Z,101086.69
2022-12-27T15:54:48.836Z,101085.06
2022-12-27T15:57:47.211Z,101097.03
2022-12-27T16:00:15.700Z,101098.78
2022-12-27T16:02:49.462Z,101103.81
2022-12-27T16:05:19.742Z,101104.03
2022-12-27T16:07:49.278Z,101096.69
2022-12-27T16:10:36.486Z,101092.44
2022-12-27T16:13:13.239Z,101088.78
2022-12-27T16:15:44.784Z,101093.31
2022-12-27T16:18:21.596Z,101098.16
2022-12-27T16:20:57.488Z,101107.91
2022-12-27T16:23:27.996Z,101111.59
2022-12-27T16:26:07.783Z,101110.47
2022-12-27T16:28:37.390Z,101108.28
2022-12-27T16:31:11.944Z,101107.59
2022-12-27T16:33:41.141Z,101118.56
2022-12-27T16:36:35.874Z,101112.56
2022-12-27T16:39:28.124Z,101118.97
2022-12-27T16:41:58.294Z,101117.56
2022-12-27T16:44:30.719Z,101111.75
2022-12-27T16:47:23.305Z,101119.22
2022-12-27T16:50:17.029Z,101114.22
2022-12-27T16:52:53.317Z,101117.38
2022-12-27T16:55:45.756Z,101120.50
2022-12-27T16:58:33.043Z,101127.03
2022-12-27T17:01:22.080Z,101113.78
2022-12-27T17:03:49.616Z,101117.22
2022-12-27T17:06:34.063Z,101114.41
2022-12-27T17:09:10.912Z,101117.34
2022-12-27T17:11:43.184Z,101118.69
2022-12-27T17:14:26.361Z,101115.41
2022-12-27T17:16:57.306Z,101109.75
2022-12-27T17:19:33.380Z,101118.41
2022-12-27T17:22:03.883Z,101127.88
2022-12-27T17:24:31.323Z,101135.44
2022-12-27T17:27:10.944Z,101140.06
2022-12-27T17:29:38.679Z,101149.34
2022-12-27T17:32:08.938Z,101157.69
2022-12-27T17:34:41.178Z,101168.47
2022-12-27T17:37:28.017Z,101168.56
2022-12-27T17:40:05.763Z,101174.72
2022-12-27T17:43:05.308Z,101178.12
2022-12-27T17:45:35.950Z,101177.78
2022-12-27T17:48:34.205Z,101183.31
2022-12-27T17:51:06.183Z,101167.38
2022-12-27T17:53:52.495Z,101171.50
2022-12-27T17:56:40.255Z,101173.06
2022-12-27T17:59:10.340Z,101179.72
2022-12-27T18:01:47.363Z,101184.84
2022-12-27T18:04:18.890Z,101188.63
2022-12-27T18:06:46.651Z,101196.81
2022-12-27T18:09:31.243Z,101198.03
2022-12-27T18:11:59.956Z,101206.41
2022-12-27T18:14:30.538Z,101217.50
2022-12-27T18:16:58.642Z,101208.56
2022-12-27T18:19:31.695Z,101217.84
2022-12-27T18:22:02.108Z,101219.75
2022-12-27T18:24:32.058Z,101223.63
2022-12-27T18:27:02.113Z,101216.56
2022-12-27T18:29:30.277Z,101222.97
2022-12-27T18:32:04.756Z,101223.16
2022-12-27T18:34:34.670Z,101225.38
2022-12-27T18:37:07.425Z,101220.41
2022-12-27T18:40:00.494Z,101211.12
2022-12-27T18:42:41.254Z,101209.97
2022-12-27T18:45:19.783Z,101212.16
2022-12-27T18:47:53.163Z,101208.34
2022-12-27T18:50:24.214Z,101223.69
2022-12-27T18:53:04.203Z,101224.78
2022-12-27T18:55:32.868Z,101224.22
2022-12-27T18:58:20.213Z,101222.84
2022-12-27T19:00:55.306Z,101215.97
2022-12-27T19:03:26.830Z,101225.78
2022-12-27T19:06:01.043Z,101224.38
2022-12-27T19:08:37.639Z,101225.78
2022-12-27T19:11:06.869Z,101218.22
2022-12-27T19:13:48.170Z,101217.44
2022-12-27T19:16:22.843Z,101211.94
2022-12-27T19:18:54.201Z,101217.59
2022-12-27T19:21:36.836Z,101215.53
2022-12-27T19:24:24.002Z,101227.78
2022-12-27T19:26:52.106Z,101241.53
2022-12-27T19:29:23.226Z,101237.75
2022-12-27T19:31:56.883Z,101231.03
2022-12-27T19:34:26.941Z,101238.16
2022-12-27T19:36:55.990Z,101228.91
2022-12-27T19:39:26.822Z,101218.47
2022-12-27T19:42:00.705Z,101222.50
2022-12-27T19:44:32.627Z,101205.66
2022-12-27T19:47:00.403Z,101201.88
2022-12-27T19:49:44.721Z,101217.75
2022-12-27T19:52:19.092Z,101210.66
2022-12-27T19:54:47.208Z,101215.81
2022-12-27T19:57:15.304Z,101223.87
2022-12-27T19:59:43.182Z,101234.34
2022-12-27T20:02:18.694Z,101231.62
2022-12-27T20:04:47.059Z,101222.91
2022-12-27T20:07:20.983Z,101215.00
2022-12-27T20:09:49.422Z,101209.75
2022-12-27T20:12:18.286Z,101222.94
2022-12-27T20:14:47.398Z,101215.28
2022-12-27T20:17:17.256Z,101233.75
2022-12-27T20:19:45.099Z,101228.06
2022-12-27T20:22:13.206Z,101228.47
2022-12-27T20:24:41.433Z,101224.25
2022-12-27T20:27:09.283Z,101233.50
2022-12-27T20:29:37.930Z,101238.06
2022-12-27T20:32:06.373Z,101250.06
2022-12-27T20:34:34.410Z,101250.03
2022-12-27T20:37:02.057Z,101247.22
2022-12-27T20:39:29.903Z,101256.25
2022-12-27T20:41:57.506Z,101247.47
2022-12-27T20:44:25.119Z,101234.09
2022-12-27T20:46:53.873Z,101232.72
2022-12-27T20:49:21.575Z,101231.97
2022-12-27T20:51:49.145Z,101241.44
2022-12-27T20:54:17.036Z,101242.69
2022-12-27T20:56:44.680Z,101264.25
2022-12-27T20:59:12.384Z,101278.00
2022-12-27T21:01:40.370Z,101286.12
2022-12-27T21:04:09.164Z,101278.91
2022-12-27T21:06:36.856Z,101268.06
2022-12-27T21:09:05.566Z,101256.44
2022-12-27T21:11:33.060Z,101251.84
2022-12-27T21:14:02.318Z,101242.53
2022-12-27T21:16:32.307Z,101245.84
2022-12-27T21:19:03.709Z,101252.06
2022-12-27T21:21:33.562Z,101259.31
2022-12-27T21:24:01.390Z,101266.41
2022-12-27T21:26:31.237Z,101281.78
2022-12-27T21:29:00.549Z,101285.66
2022-12-27T21:31:29.367Z,101283.22
2022-12-27T21:33:58.259Z,101290.34
2022-12-27T21:36:27.977Z,101294.34
2022-12-27T21:38:55.876Z,101281.53
2022-12-27T21:41:26.001Z,101273.22
2022-12-27T21:43:54.413Z,101285.06
2022-12-27T21:46:27.129Z,101270.16
2022-12-27T21:48:59.557Z,101281.50
2022-12-27T21:51:27.925Z,101278.66
2022-12-27T21:53:56.000Z,101279.12
2022-12-27T21:56:23.902Z,101273.69
2022-12-27T21:58:51.705Z,101275.09
2022-12-27T22:01:24.523Z,101283.16
2022-12-27T22:03:53.359Z,101284.06
2022-12-27T22:06:26.032Z,101287.22
2022-12-27T22:08:56.087Z,101282.53
2022-12-27T22:11:24.309Z,101273.03
2022-12-27T22:13:51.939Z,101283.59
2022-12-27T22:16:22.023Z,101291.19
2022-12-27T22:18:49.972Z,101293.12
2022-12-27T22:21:20.290Z,101288.78
2022-12-27T22:23:50.115Z,101290.16
2022-12-27T22:26:21.542Z,101275.47
2022-12-27T22:28:49.354Z,101295.38
2022-12-27T22:31:22.318Z,101298.78
2022-12-27T22:33:50.844Z,101300.38
2022-12-27T22:36:21.120Z,101298.81
2022-12-27T22:38:50.321Z,101298.78
2022-12-27T22:41:21.035Z,101296.66
2022-12-27T22:43:53.073Z,101284.78
2022-12-27T22:46:21.255Z,101287.91
2022-12-27T22:48:50.637Z,101294.06
2022-12-27T22:51:22.113Z,101289.47
2022-12-27T22:53:50.099Z,101278.44
2022-12-27T22:56:19.888Z,101268.91
2022-12-27T22:58:47.763Z,101268.84
2022-12-27T23:01:30.127Z,101274.34
2022-12-27T23:03:59.058Z,101278.94
2022-12-27T23:06:28.039Z,101275.00
2022-12-27T23:08:55.516Z,101271.41
2022-12-27T23:11:28.328Z,101267.34
2022-12-27T23:14:01.716Z,101272.34
2022-12-27T23:16:36.193Z,101264.47
2022-12-27T23:19:04.587Z,101262.38
2022-12-27T23:21:32.006Z,101266.38
2022-12-27T23:23:59.378Z,101267.78
2022-12-27T23:26:27.592Z,101278.41
2022-12-27T23:28:55.488Z,101276.66
2022-12-27T23:31:23.683Z,101274.13
2022-12-27T23:33:51.894Z,101271.81
2022-12-27T23:36:19.309Z,101259.91
2022-12-27T23:38:47.168Z,101251.94
2022-12-27T23:41:17.138Z,101234.44
2022-12-27T23:43:54.500Z,101242.00
2022-12-27T23:46:24.208Z,101253.87
2022-12-27T23:48:52.365Z,101250.22
2022-12-27T23:51:20.995Z,101243.59
2022-12-27T23:53:48.803Z,101236.00
2022-12-27T23:56:18.984Z,101229.63
2022-12-27T23:58:47.412Z,101229.50
